createdAt,value
2023-05-06T00:00:17.399Z,2.95
2023-05-06T00:02:45.935Z,2.85
2023-05-06T00:05:14.940Z,3.13
2023-05-06T00:07:43.117Z,3.30
2023-05-06T00:10:13.085Z,2.85
2023-05-06T00:12:42.880Z,3.22
2023-05-06T00:15:12.164Z,2.60
2023-05-06T00:17:40.653Z,3.40
2023-05-06T00:20:10.835Z,3.33
2023-05-06T00:22:39.087Z,2.70
2023-05-06T00:25:08.123Z,2.97
2023-05-06T00:27:38.792Z,3.30
2023-05-06T00:30:08.337Z,3.00
2023-05-06T00:32:36.577Z,3.22
2023-05-06T00:35:05.360Z,3.05
2023-05-06T00:37:33.836Z,3.42
2023-05-06T00:40:03.660Z,3.22
2023-05-06T00:42:32.029Z,2.97
2023-05-06T00:45:01.774Z,3.20
2023-05-06T00:47:30.060Z,3.47
2023-05-06T00:49:58.295Z,2.95
2023-05-06T00:52:28.814Z,3.28
2023-05-06T00:54:57.453Z,2.75
2023-05-06T00:57:25.974Z,3.50
2023-05-06T00:59:55.109Z,3.03
2023-05-06T01:02:30.610Z,3.40
2023-05-06T01:05:07.331Z,2.95
2023-05-06T01:07:46.228Z,2.95
2023-05-06T01:10:20.000Z,3.35
2023-05-06T01:12:55.313Z,3.22
2023-05-06T01:15:29.947Z,3.17
2023-05-06T01:18:02.069Z,2.85
2023-05-06T01:20:32.122Z,3.20
2023-05-06T01:23:03.321Z,2.88
2023-05-06T01:25:33.869Z,3.20
2023-05-06T01:28:02.116Z,3.28
2023-05-06T01:30:34.563Z,3.03
2023-05-06T01:33:16.735Z,3.20
2023-05-06T01:35:54.679Z,2.90
2023-05-06T01:38:30.837Z,2.83
2023-05-06T01:41:02.761Z,2.92
2023-05-06T01:43:42.953Z,2.88
2023-05-06T01:46:14.613Z,2.50
2023-05-06T01:48:44.049Z,2.83
2023-05-06T01:51:12.257Z,2.80
2023-05-06T01:53:40.443Z,2.83
2023-05-06T01:56:10.006Z,2.97
2023-05-06T01:58:39.387Z,2.78
2023-05-06T02:01:07.528Z,3.25
2023-05-06T02:03:37.337Z,2.78
2023-05-06T02:06:06.073Z,2.70
2023-05-06T02:08:38.107Z,2.85
2023-05-06T02:11:06.424Z,2.75
2023-05-06T02:13:36.960Z,3.10
2023-05-06T02:16:06.510Z,3.05
2023-05-06T02:18:34.710Z,2.72
2023-05-06T02:21:03.131Z,2.90
2023-05-06T02:23:31.366Z,2.42
2023-05-06T02:25:59.989Z,2.97
2023-05-06T02:28:28.203Z,3.08
2023-05-06T02:30:58.123Z,3.20
2023-05-06T02:33:26.702Z,2.47
2023-05-06T02:35:54.865Z,3.30
2023-05-06T02:38:23.472Z,2.45
2023-05-06T02:40:51.660Z,2.75
2023-05-06T02:43:19.897Z,2.83
2023-05-06T02:45:48.200Z,2.92
2023-05-06T02:48:17.822Z,2.30
2023-05-06T02:50:46.117Z,2.80
2023-05-06T02:53:14.387Z,2.63
2023-05-06T02:55:43.613Z,2.67
2023-05-06T02:58:11.756Z,2.80
2023-05-06T03:00:40.014Z,2.60
2023-05-06T03:03:08.415Z,2.08
2023-05-06T03:05:38.086Z,2.55
2023-05-06T03:08:06.826Z,2.80
2023-05-06T03:10:36.545Z,2.47
2023-05-06T03:13:05.061Z,3.10
2023-05-06T03:15:33.273Z,2.88
2023-05-06T03:18:01.501Z,2.92
2023-05-06T03:20:30.659Z,2.85
2023-05-06T03:23:02.266Z,3.05
2023-05-06T03:25:31.317Z,2.80
2023-05-06T03:27:59.551Z,2.90
2023-05-06T03:30:29.332Z,2.70
2023-05-06T03:33:02.306Z,2.80
2023-05-06T03:35:33.034Z,2.65
2023-05-06T03:38:03.951Z,2.20
2023-05-06T03:40:39.819Z,2.50
2023-05-06T03:43:08.450Z,2.60
2023-05-06T03:45:37.910Z,3.00
2023-05-06T03:48:07.337Z,2.67
2023-05-06T03:50:39.370Z,2.90
2023-05-06T03:53:09.105Z,3.08
2023-05-06T03:55:40.390Z,2.83
2023-05-06T03:58:08.640Z,2.70
2023-05-06T04:00:37.787Z,3.10
2023-05-06T04:03:06.008Z,2.63
2023-05-06T04:05:42.400Z,2.35
2023-05-06T04:08:14.184Z,2.88
2023-05-06T04:10:42.485Z,2.53
2023-05-06T04:13:19.609Z,2.83
2023-05-06T04:15:48.040Z,2.80
2023-05-06T04:18:21.165Z,2.85
2023-05-06T04:20:58.468Z,2.10
2023-05-06T04:23:28.500Z,2.70
2023-05-06T04:25:59.291Z,2.90
2023-05-06T04:28:28.907Z,2.40
2023-05-06T04:30:57.383Z,2.88
2023-05-06T04:33:33.277Z,3.05
2023-05-06T04:36:03.577Z,2.53
2023-05-06T04:38:37.338Z,2.97
2023-05-06T04:41:06.477Z,3.00
2023-05-06T04:43:34.709Z,2.70
2023-05-06T04:46:11.674Z,2.80
2023-05-06T04:48:42.830Z,3.10
2023-05-06T04:51:14.072Z,2.80
2023-05-06T04:53:43.840Z,2.67
2023-05-06T04:56:12.068Z,2.97
2023-05-06T04:58:40.793Z,2.55
2023-05-06T05:01:10.499Z,2.83
2023-05-06T05:03:38.899Z,2.78
2023-05-06T05:06:08.917Z,2.85
2023-05-06T05:08:37.305Z,2.55
2023-05-06T05:11:08.725Z,2.90
2023-05-06T05:13:36.966Z,2.90
2023-05-06T05:16:07.532Z,3.00
2023-05-06T05:18:39.095Z,3.08
2023-05-06T05:21:14.751Z,2.67
2023-05-06T05:23:42.948Z,2.55
2023-05-06T05:26:12.469Z,2.80
2023-05-06T05:28:42.083Z,2.70
2023-05-06T05:31:10.594Z,2.50
2023-05-06T05:33:40.260Z,2.50
2023-05-06T05:36:15.266Z,2.63
2023-05-06T05:38:46.654Z,2.67
2023-05-06T05:41:17.811Z,2.75
2023-05-06T05:43:46.865Z,3.10
2023-05-06T05:46:16.814Z,3.15
2023-05-06T05:48:46.640Z,2.30
2023-05-06T05:51:15.498Z,2.58
2023-05-06T05:53:44.335Z,2.50
2023-05-06T05:56:13.584Z,2.67
2023-05-06T05:58:43.812Z,3.17
2023-05-06T06:01:12.175Z,2.75
2023-05-06T06:03:40.927Z,2.75
2023-05-06T06:06:09.747Z,2.60
2023-05-06T06:08:38.618Z,2.67
2023-05-06T06:11:07.817Z,2.70
2023-05-06T06:13:40.905Z,2.28
2023-05-06T06:16:11.788Z,2.70
2023-05-06T06:18:40.096Z,3.03
2023-05-06T06:21:08.341Z,2.75
2023-05-06T06:23:37.286Z,2.95
2023-05-06T06:26:06.791Z,2.80
2023-05-06T06:28:35.237Z,2.65
2023-05-06T06:31:03.434Z,3.15
2023-05-06T06:33:33.056Z,2.97
2023-05-06T06:36:01.261Z,3.05
2023-05-06T06:38:29.505Z,2.92
2023-05-06T06:40:57.651Z,3.20
2023-05-06T06:43:25.889Z,2.63
2023-05-06T06:46:00.935Z,2.97
2023-05-06T06:48:29.316Z,2.78
2023-05-06T06:50:58.868Z,2.50
2023-05-06T06:53:27.075Z,2.40
2023-05-06T06:55:55.261Z,2.80
2023-05-06T06:58:23.531Z,3.13
2023-05-06T07:00:51.731Z,2.63
2023-05-06T07:03:20.377Z,3.03
2023-05-06T07:05:51.304Z,3.42
2023-05-06T07:08:22.312Z,3.13
2023-05-06T07:10:50.528Z,3.10
2023-05-06T07:13:20.587Z,2.78
2023-05-06T07:15:48.831Z,2.70
2023-05-06T07:18:17.445Z,2.85
2023-05-06T07:20:45.822Z,2.92
2023-05-06T07:23:13.967Z,3.20
2023-05-06T07:25:43.574Z,2.70
2023-05-06T07:28:11.890Z,2.90
2023-05-06T07:30:40.137Z,3.08
2023-05-06T07:33:08.344Z,3.28
2023-05-06T07:35:37.487Z,2.80
2023-05-06T07:38:05.649Z,2.88
2023-05-06T07:40:34.003Z,2.90
2023-05-06T07:43:03.951Z,2.95
2023-05-06T07:45:32.156Z,2.70
2023-05-06T07:48:00.579Z,2.97
2023-05-06T07:50:28.769Z,3.45
2023-05-06T07:52:56.993Z,3.10
2023-05-06T07:55:25.172Z,3.33
2023-05-06T07:57:53.342Z,3.75
2023-05-06T08:00:22.944Z,2.85
2023-05-06T08:02:51.182Z,3.42
2023-05-06T08:05:19.496Z,3.70
2023-05-06T08:07:47.807Z,3.40
2023-05-06T08:10:16.098Z,2.25
2023-05-06T08:12:44.307Z,3.33
2023-05-06T08:15:13.225Z,3.00
2023-05-06T08:17:42.910Z,3.38
2023-05-06T08:20:12.032Z,3.03
2023-05-06T08:22:40.489Z,3.38
2023-05-06T08:25:09.669Z,2.83
2023-05-06T08:27:37.924Z,3.70
2023-05-06T08:30:06.963Z,3.35
2023-05-06T08:32:35.548Z,2.90
2023-05-06T08:35:05.726Z,3.33
2023-05-06T08:37:34.270Z,3.45
2023-05-06T08:40:02.551Z,4.10
2023-05-06T08:42:31.838Z,3.90
2023-05-06T08:45:00.258Z,3.25
2023-05-06T08:47:28.631Z,3.53
2023-05-06T08:49:57.158Z,3.33
2023-05-06T08:52:27.199Z,3.60
2023-05-06T08:55:01.134Z,3.13
2023-05-06T08:57:31.632Z,3.13
2023-05-06T08:59:59.969Z,3.80
2023-05-06T09:02:29.075Z,3.70
2023-05-06T09:04:57.460Z,3.38
2023-05-06T09:07:27.069Z,2.72
2023-05-06T09:09:55.412Z,3.75
2023-05-06T09:12:25.152Z,4.13
2023-05-06T09:14:54.449Z,3.00
2023-05-06T09:17:28.440Z,2.78
2023-05-06T09:19:57.962Z,3.88
2023-05-06T09:22:28.774Z,3.10
2023-05-06T09:24:58.072Z,2.95
2023-05-06T09:27:28.022Z,3.60
2023-05-06T09:30:04.906Z,3.53
2023-05-06T09:32:36.725Z,3.50
2023-05-06T09:35:07.356Z,2.70
2023-05-06T09:37:36.991Z,4.13
2023-05-06T09:40:05.992Z,3.83
2023-05-06T09:42:37.435Z,3.28
2023-05-06T09:45:10.186Z,3.17
2023-05-06T09:47:38.875Z,4.00
2023-05-06T09:50:10.016Z,3.58
2023-05-06T09:52:39.518Z,4.10
2023-05-06T09:55:08.507Z,3.75
2023-05-06T09:57:38.121Z,4.13
2023-05-06T10:00:09.112Z,4.30
2023-05-06T10:02:43.865Z,4.07
2023-05-06T10:05:14.023Z,3.95
2023-05-06T10:07:44.411Z,4.20
2023-05-06T10:10:13.450Z,3.92
2023-05-06T10:12:41.783Z,3.75
2023-05-06T10:15:11.002Z,3.67
2023-05-06T10:17:42.447Z,3.60
2023-05-06T10:20:15.126Z,3.65
2023-05-06T10:22:53.368Z,4.03
2023-05-06T10:25:28.871Z,4.82
2023-05-06T10:27:57.052Z,4.13
2023-05-06T10:30:27.628Z,4.57
2023-05-06T10:32:59.843Z,4.25
2023-05-06T10:35:39.507Z,4.25
2023-05-06T10:38:16.240Z,3.92
2023-05-06T10:40:44.994Z,4.85
2023-05-06T10:43:26.979Z,4.60
2023-05-06T10:46:10.795Z,4.55
2023-05-06T10:48:40.490Z,4.70
2023-05-06T10:51:28.388Z,4.93
2023-05-06T10:54:08.850Z,4.22
2023-05-06T10:56:39.147Z,5.15
2023-05-06T10:59:09.367Z,5.15
2023-05-06T11:01:38.264Z,5.50
2023-05-06T11:04:30.477Z,5.25
2023-05-06T11:07:08.987Z,4.85
2023-05-06T11:09:56.245Z,5.13
2023-05-06T11:12:49.866Z,5.40
2023-05-06T11:15:24.905Z,7.13
2023-05-06T11:17:54.432Z,8.63
2023-05-06T11:20:24.459Z,5.90
2023-05-06T11:22:53.326Z,6.22
2023-05-06T11:25:42.212Z,9.07
2023-05-06T11:28:12.232Z,9.35
2023-05-06T11:30:42.651Z,5.93
2023-05-06T11:33:18.435Z,5.35
2023-05-06T11:35:46.867Z,5.65
2023-05-06T11:38:15.091Z,5.93
2023-05-06T11:40:44.637Z,7.45
2023-05-06T11:43:13.972Z,9.45
2023-05-06T11:45:43.513Z,6.70
2023-05-06T11:48:13.282Z,6.43
2023-05-06T11:50:47.113Z,6.10
2023-05-06T11:53:16.769Z,5.63
2023-05-06T11:55:52.554Z,5.60
2023-05-06T11:58:25.256Z,9.75
2023-05-06T12:00:55.801Z,9.88
2023-05-06T12:03:25.206Z,6.55
2023-05-06T12:05:54.161Z,5.38
2023-05-06T12:08:27.812Z,5.55
2023-05-06T12:11:00.763Z,5.47
2023-05-06T12:13:29.423Z,5.45
2023-05-06T12:16:00.132Z,5.47
2023-05-06T12:18:29.106Z,4.75
2023-05-06T12:20:57.929Z,5.10
2023-05-06T12:23:26.082Z,5.03
2023-05-06T12:26:03.901Z,5.35
2023-05-06T12:28:33.461Z,5.07
2023-05-06T12:31:02.367Z,5.90
2023-05-06T12:33:46.100Z,5.03
2023-05-06T12:36:14.507Z,5.32
2023-05-06T12:38:52.458Z,7.07
2023-05-06T12:41:22.376Z,6.63
2023-05-06T12:43:52.333Z,5.75
2023-05-06T12:46:20.688Z,6.25
2023-05-06T12:49:03.649Z,6.53
2023-05-06T12:51:32.296Z,6.63
2023-05-06T12:54:00.644Z,6.25
2023-05-06T12:56:30.300Z,5.03
2023-05-06T12:59:02.402Z,5.80
2023-05-06T13:01:31.442Z,6.38
2023-05-06T13:03:59.733Z,7.18
2023-05-06T13:06:27.870Z,6.88
2023-05-06T13:08:56.000Z,5.18
2023-05-06T13:11:27.926Z,6.60
2023-05-06T13:13:57.427Z,6.15
2023-05-06T13:16:25.900Z,6.22
2023-05-06T13:18:54.059Z,6.60
2023-05-06T13:21:22.224Z,11.88
2023-05-06T13:23:50.533Z,5.82
2023-05-06T13:26:18.726Z,5.57
2023-05-06T13:28:47.351Z,5.78
2023-05-06T13:31:16.903Z,5.10
2023-05-06T13:33:45.118Z,5.95
2023-05-06T13:36:13.292Z,6.07
2023-05-06T13:38:41.475Z,6.05
2023-05-06T13:41:12.757Z,6.68
2023-05-06T13:43:40.889Z,6.20
2023-05-06T13:46:09.883Z,6.57
2023-05-06T13:48:39.504Z,7.03
2023-05-06T13:51:07.679Z,6.50
2023-05-06T13:53:36.620Z,6.63
2023-05-06T13:56:05.281Z,7.43
2023-05-06T13:58:33.446Z,8.45
2023-05-06T14:01:01.804Z,7.70
2023-05-06T14:03:30.269Z,8.27
2023-05-06T14:05:59.943Z,7.57
2023-05-06T14:08:28.384Z,8.32
2023-05-06T14:10:56.557Z,7.60
2023-05-06T14:13:32.305Z,7.65
2023-05-06T14:16:01.132Z,6.50
2023-05-06T14:18:29.872Z,7.78
2023-05-06T14:20:59.397Z,7.95
2023-05-06T14:23:27.709Z,7.50
2023-05-06T14:25:56.830Z,7.80
2023-05-06T14:28:25.037Z,8.30
2023-05-06T14:30:54.099Z,9.70
2023-05-06T14:33:23.383Z,8.88
2023-05-06T14:35:52.787Z,8.93
2023-05-06T14:38:22.332Z,7.07
2023-05-06T14:40:51.484Z,7.35
2023-05-06T14:43:19.700Z,6.32
2023-05-06T14:45:47.947Z,6.72
2023-05-06T14:48:16.606Z,6.85
2023-05-06T14:50:44.833Z,5.90
2023-05-06T14:53:12.985Z,6.20
2023-05-06T14:55:42.968Z,7.18
2023-05-06T14:58:11.151Z,8.00
2023-05-06T15:00:39.415Z,6.88
2023-05-06T15:03:07.614Z,8.25
2023-05-06T15:05:37.874Z,12.20
2023-05-06T15:08:07.286Z,9.25
2023-05-06T15:10:35.445Z,10.82
2023-05-06T15:13:05.066Z,11.20
2023-05-06T15:15:33.269Z,10.50
2023-05-06T15:18:01.499Z,14.02
2023-05-06T15:20:30.091Z,11.75
2023-05-06T15:22:58.263Z,12.90
2023-05-06T15:25:34.950Z,10.70
2023-05-06T15:28:06.252Z,15.00
2023-05-06T15:30:34.438Z,11.73
2023-05-06T15:33:04.085Z,15.05
2023-05-06T15:35:32.675Z,14.15
2023-05-06T15:38:00.850Z,12.07
2023-05-06T15:40:29.283Z,13.75
2023-05-06T15:42:57.633Z,14.00
2023-05-06T15:45:27.181Z,12.90
2023-05-06T15:47:56.198Z,13.05
2023-05-06T15:50:32.522Z,11.85
2023-05-06T15:53:02.104Z,13.82
2023-05-06T15:55:35.073Z,12.43
2023-05-06T15:58:09.550Z,13.45
2023-05-06T16:00:40.161Z,15.13
2023-05-06T16:03:11.705Z,13.25
2023-05-06T16:05:40.878Z,13.02
2023-05-06T16:08:09.072Z,11.70
2023-05-06T16:10:37.221Z,10.25
2023-05-06T16:13:05.478Z,12.27
2023-05-06T16:15:35.296Z,12.90
2023-05-06T16:18:07.449Z,11.75
2023-05-06T16:20:35.645Z,13.13
2023-05-06T16:23:05.637Z,12.68
2023-05-06T16:25:34.541Z,13.23
2023-05-06T16:28:02.770Z,16.17
2023-05-06T16:30:31.132Z,13.45
2023-05-06T16:32:59.408Z,16.15
2023-05-06T16:35:29.497Z,15.40
2023-05-06T16:37:58.198Z,17.08
2023-05-06T16:40:50.956Z,13.77
2023-05-06T16:43:19.587Z,18.00
2023-05-06T16:45:48.200Z,19.63
2023-05-06T16:48:17.090Z,18.40
2023-05-06T16:50:47.096Z,19.08
2023-05-06T16:53:18.403Z,12.25
2023-05-06T16:55:49.937Z,17.92
2023-05-06T16:58:18.237Z,17.90
2023-05-06T17:00:46.551Z,19.42
2023-05-06T17:03:14.846Z,17.17
2023-05-06T17:05:43.161Z,14.65
2023-05-06T17:08:12.703Z,15.13
2023-05-06T17:10:40.858Z,18.17
2023-05-06T17:13:09.393Z,14.98
2023-05-06T17:15:37.555Z,15.85
2023-05-06T17:18:05.873Z,18.48
2023-05-06T17:20:44.302Z,12.95
2023-05-06T17:23:23.585Z,15.52
2023-05-06T17:25:52.268Z,14.50
2023-05-06T17:28:20.548Z,12.80
2023-05-06T17:30:48.994Z,14.55
2023-05-06T17:33:17.210Z,10.45
2023-05-06T17:35:45.953Z,13.20
2023-05-06T17:38:16.722Z,11.02
2023-05-06T17:40:46.361Z,11.85
2023-05-06T17:43:14.746Z,11.35
2023-05-06T17:45:43.006Z,12.27
2023-05-06T17:48:11.322Z,13.52
2023-05-06T17:50:39.551Z,12.18
2023-05-06T17:53:07.766Z,10.75
2023-05-06T17:55:35.910Z,10.00
2023-05-06T17:58:05.551Z,10.65
2023-05-06T18:00:33.726Z,13.55
2023-05-06T18:03:04.294Z,11.48
2023-05-06T18:05:32.527Z,13.30
2023-05-06T18:08:00.675Z,12.23
2023-05-06T18:10:30.125Z,9.77
2023-05-06T18:12:58.404Z,11.95
2023-05-06T18:15:28.255Z,11.77
2023-05-06T18:17:56.511Z,9.73
2023-05-06T18:20:30.360Z,10.90
2023-05-06T18:22:59.746Z,13.55
2023-05-06T18:25:27.940Z,13.40
2023-05-06T18:27:56.170Z,11.52
2023-05-06T18:30:27.297Z,13.98
2023-05-06T18:32:57.081Z,12.77
2023-05-06T18:35:25.311Z,11.88
2023-05-06T18:37:53.501Z,12.30
2023-05-06T18:40:21.769Z,12.40
2023-05-06T18:42:51.265Z,10.35
2023-05-06T18:45:19.553Z,13.05
2023-05-06T18:47:47.722Z,13.85
2023-05-06T18:50:17.325Z,12.95
2023-05-06T18:52:45.516Z,13.98
2023-05-06T18:55:13.807Z,15.27
2023-05-06T18:57:42.117Z,16.35
2023-05-06T19:00:13.564Z,16.58
2023-05-06T19:02:41.908Z,14.90
2023-05-06T19:05:11.730Z,14.77
2023-05-06T19:07:41.601Z,15.45
2023-05-06T19:10:13.837Z,15.45
2023-05-06T19:12:42.617Z,18.30
2023-05-06T19:15:13.955Z,15.98
2023-05-06T19:17:42.411Z,20.83
2023-05-06T19:20:11.526Z,19.63
2023-05-06T19:22:41.092Z,20.23
2023-05-06T19:25:12.903Z,18.77
2023-05-06T19:27:41.424Z,19.42
2023-05-06T19:30:11.031Z,19.17
2023-05-06T19:32:40.329Z,18.70
2023-05-06T19:35:09.706Z,19.85
2023-05-06T19:37:38.379Z,18.35
2023-05-06T19:40:09.388Z,18.52
2023-05-06T19:42:37.581Z,18.98
2023-05-06T19:45:09.208Z,18.70
2023-05-06T19:47:37.850Z,22.60
2023-05-06T19:50:09.933Z,24.85
2023-05-06T19:52:38.299Z,20.45
2023-05-06T19:55:09.614Z,22.05
2023-05-06T19:57:38.307Z,20.88
2023-05-06T20:00:10.265Z,22.13
2023-05-06T20:02:38.879Z,16.38
2023-05-06T20:05:07.802Z,18.83
2023-05-06T20:07:38.380Z,21.08
2023-05-06T20:10:09.921Z,20.08
2023-05-06T20:12:38.302Z,21.58
2023-05-06T20:15:07.690Z,23.17
2023-05-06T20:17:35.974Z,24.75
2023-05-06T20:20:09.482Z,31.00
2023-05-06T20:22:38.163Z,27.60
2023-05-06T20:25:13.006Z,24.85
2023-05-06T20:27:41.396Z,20.25
2023-05-06T20:30:11.339Z,19.92
2023-05-06T20:32:41.061Z,19.95
2023-05-06T20:35:10.129Z,17.40
2023-05-06T20:37:38.673Z,20.83
2023-05-06T20:40:09.611Z,14.52
2023-05-06T20:42:39.186Z,16.33
2023-05-06T20:45:09.155Z,21.10
2023-05-06T20:47:38.060Z,17.05
2023-05-06T20:50:06.951Z,16.17
2023-05-06T20:52:35.140Z,16.77
2023-05-06T20:55:03.828Z,19.77
2023-05-06T20:57:32.011Z,17.17
2023-05-06T21:00:01.490Z,17.98
2023-05-06T21:02:35.825Z,16.42
2023-05-06T21:05:08.784Z,18.58
2023-05-06T21:07:37.344Z,17.67
2023-05-06T21:10:06.364Z,15.73
2023-05-06T21:12:35.196Z,20.30
2023-05-06T21:15:07.185Z,15.77
2023-05-06T21:17:36.654Z,15.43
2023-05-06T21:20:10.897Z,17.85
2023-05-06T21:22:39.054Z,17.58
2023-05-06T21:25:08.861Z,18.00
2023-05-06T21:27:37.343Z,16.98
2023-05-06T21:30:08.827Z,16.48
2023-05-06T21:32:37.098Z,16.20
2023-05-06T21:35:06.180Z,13.02
2023-05-06T21:37:35.607Z,14.80
2023-05-06T21:40:07.212Z,15.07
2023-05-06T21:42:35.385Z,14.30
2023-05-06T21:45:03.639Z,13.93
2023-05-06T21:47:34.446Z,13.85
2023-05-06T21:50:02.729Z,14.70
2023-05-06T21:52:31.469Z,16.02
2023-05-06T21:55:00.419Z,13.07
2023-05-06T21:57:28.587Z,15.05
2023-05-06T21:59:56.785Z,13.07
2023-05-06T22:02:26.963Z,14.82
2023-05-06T22:04:59.336Z,14.35
2023-05-06T22:07:28.616Z,12.57
2023-05-06T22:09:56.798Z,15.13
2023-05-06T22:12:24.936Z,15.90
2023-05-06T22:14:53.111Z,13.90
2023-05-06T22:17:22.401Z,15.77
2023-05-06T22:19:51.526Z,12.85
2023-05-06T22:22:21.908Z,14.45
2023-05-06T22:24:50.067Z,12.40
2023-05-06T22:27:18.235Z,14.57
2023-05-06T22:29:48.530Z,14.40
2023-05-06T22:32:16.665Z,14.07
2023-05-06T22:34:44.815Z,15.05
2023-05-06T22:37:12.983Z,14.02
2023-05-06T22:39:44.036Z,14.27
2023-05-06T22:42:12.188Z,14.13
2023-05-06T22:44:40.358Z,14.63
2023-05-06T22:47:11.095Z,12.07
2023-05-06T22:49:39.618Z,13.52
2023-05-06T22:52:07.932Z,12.00
2023-05-06T22:54:36.150Z,12.90
2023-05-06T22:57:08.741Z,10.43
2023-05-06T22:59:37.051Z,12.50
2023-05-06T23:02:05.350Z,11.35
2023-05-06T23:04:33.493Z,12.18
2023-05-06T23:07:01.629Z,11.40
2023-05-06T23:09:29.891Z,14.15
2023-05-06T23:11:58.047Z,11.65
2023-05-06T23:14:27.607Z,10.18
2023-05-06T23:16:55.815Z,8.50
2023-05-06T23:19:24.081Z,7.88
2023-05-06T23:21:52.266Z,7.78
2023-05-06T23:24:20.390Z,8.07
2023-05-06T23:26:48.759Z,5.88
2023-05-06T23:29:17.108Z,7.28
2023-05-06T23:31:46.627Z,6.80
2023-05-06T23:34:14.783Z,7.07
2023-05-06T23:36:42.962Z,7.72
2023-05-06T23:39:12.231Z,7.00
2023-05-06T23:41:40.649Z,5.97
2023-05-06T23:44:08.793Z,6.32
2023-05-06T23:46:37.134Z,6.53
2023-05-06T23:49:06.687Z,6.38
2023-05-06T23:51:35.039Z,6.00
2023-05-06T23:54:03.190Z,5.82
2023-05-06T23:56:31.367Z,5.95
2023-05-06T23:58:59.509Z,6.45
